Time;durP1;ratioP1;P1;durP2;ratioP2;P2;SDS_P1;SDS_P2;PMS_P1;PMS_P2;Temp;Humidity;BMP_temperature;BMP_pressure;BME280_temperature;BME280_humidity;BME280_pressure;Samples;Min_cycle;Max_cycle;Signal;HPM_P1;HPM_P2
2022/11/24 00:02:20;;;;;;;48.10;18.20;;;;;;;0.42;100.00;98639.38;104153;1342;24281;-37
2022/11/24 00:04:45;;;;;;;44.50;19.00;;;;;;;0.42;100.00;98642.93;104088;1337;22529;-36
2022/11/24 00:07:11;;;;;;;43.60;19.60;;;;;;;0.40;100.00;98643.79;104219;1338;22522;-36
2022/11/24 00:09:36;;;;;;;30.00;14.10;;;;;;;0.36;100.00;98643.02;104155;1339;22176;-37
2022/11/24 00:12:02;;;;;;;67.10;21.80;;;;;;;0.34;100.00;98645.94;104200;1339;22637;-37
2022/11/24 00:14:27;;;;;;;67.90;23.50;;;;;;;0.36;100.00;98646.88;104129;1338;22135;-37
2022/11/24 00:16:53;;;;;;;45.30;18.10;;;;;;;0.40;100.00;98649.08;104188;1333;22030;-34
2022/11/24 00:19:19;;;;;;;41.80;17.90;;;;;;;0.38;100.00;98649.08;103972;1339;22149;-35
2022/11/24 00:21:44;;;;;;;35.10;14.90;;;;;;;0.38;100.00;98646.86;103890;1341;22504;-37
2022/11/24 00:24:10;;;;;;;44.20;18.20;;;;;;;0.40;100.00;98644.55;104106;1334;22714;-34
2022/11/24 00:26:36;;;;;;;39.80;18.20;;;;;;;0.41;100.00;98654.46;104130;1337;22556;-37
2022/11/24 00:29:04;;;;;;;35.80;15.40;;;;;;;0.41;100.00;98657.81;104124;1342;22439;-34
2022/11/24 00:31:31;;;;;;;35.00;15.00;;;;;;;0.38;100.00;98661.05;104234;1334;22554;-33
2022/11/24 00:33:58;;;;;;;37.40;16.20;;;;;;;0.37;100.00;98666.53;104239;1334;22450;-34
2022/11/24 00:36:25;;;;;;;50.80;21.00;;;;;;;0.35;100.00;98667.54;104204;1338;22740;-36
2022/11/24 00:38:53;;;;;;;54.60;19.70;;;;;;;0.35;100.00;98672.66;104245;1334;22210;-33
2022/11/24 00:41:18;;;;;;;68.70;19.80;;;;;;;0.33;100.00;98667.98;104209;1335;22223;-37
2022/11/24 00:43:44;;;;;;;48.60;19.90;;;;;;;0.33;100.00;98667.24;104201;1335;22211;-37
2022/11/24 00:46:10;;;;;;;38.70;16.10;;;;;;;0.31;100.00;98666.70;104217;1337;22126;-33
2022/11/24 00:48:37;;;;;;;40.90;18.10;;;;;;;0.32;100.00;98670.31;103872;1337;22279;-33
2022/11/24 00:51:04;;;;;;;41.70;18.90;;;;;;;0.36;100.00;98672.44;104226;1337;22025;-33
2022/11/24 00:53:30;;;;;;;53.20;21.00;;;;;;;0.35;100.00;98672.71;103747;1334;22496;-37
2022/11/24 00:55:56;;;;;;;37.00;15.20;;;;;;;0.32;100.00;98675.20;104219;1339;22488;-37
2022/11/24 00:58:22;;;;;;;67.40;23.50;;;;;;;0.37;100.00;98676.70;104209;1339;22221;-34
2022/11/24 01:00:48;;;;;;;45.70;20.30;;;;;;;0.36;100.00;98677.79;104210;1337;22316;-36
2022/11/24 01:03:14;;;;;;;28.60;14.90;;;;;;;0.35;100.00;98674.77;104192;1339;22162;-34
2022/11/24 01:05:40;;;;;;;43.80;19.60;;;;;;;0.31;100.00;98673.74;104242;1331;22035;-33
2022/11/24 01:08:05;;;;;;;38.70;15.50;;;;;;;0.31;100.00;98677.28;104198;1337;22234;-37
2022/11/24 01:10:31;;;;;;;39.30;16.20;;;;;;;0.34;100.00;98683.64;104091;1339;22590;-37
2022/11/24 01:12:56;;;;;;;66.00;24.50;;;;;;;0.33;100.00;98683.20;104216;1339;22345;-37
2022/11/24 01:15:22;;;;;;;50.20;20.50;;;;;;;0.32;100.00;98683.16;104154;1331;22196;-33
2022/11/24 01:17:47;;;;;;;27.80;11.50;;;;;;;0.30;100.00;98682.84;104089;1339;22210;-37
2022/11/24 01:20:13;;;;;;;52.40;23.10;;;;;;;0.36;100.00;98686.63;104247;1342;22249;-37
2022/11/24 01:22:40;;;;;;;39.80;16.90;;;;;;;0.33;100.00;98689.92;104260;1337;22047;-33
2022/11/24 01:25:06;;;;;;;37.00;15.50;;;;;;;0.31;100.00;98690.81;104225;1342;22529;-37
2022/11/24 01:27:32;;;;;;;44.20;19.50;;;;;;;0.29;100.00;98696.27;104233;1342;22331;-37
2022/11/24 01:29:57;;;;;;;52.80;18.80;;;;;;;0.32;100.00;98697.13;104155;1340;22113;-34
2022/11/24 01:32:23;;;;;;;54.20;19.90;;;;;;;0.30;100.00;98696.02;103904;1339;22506;-36
2022/11/24 01:34:48;;;;;;;42.20;16.60;;;;;;;0.30;100.00;98699.23;103883;1334;22436;-37
2022/11/24 01:37:14;;;;;;;52.10;20.20;;;;;;;0.28;100.00;98702.79;104195;1338;22108;-33
2022/11/24 01:39:39;;;;;;;38.30;15.80;;;;;;;0.28;100.00;98707.34;104200;1331;22504;-31
2022/11/24 01:42:05;;;;;;;41.90;18.80;;;;;;;0.29;100.00;98710.39;104212;1342;22164;-35
2022/11/24 01:44:31;;;;;;;32.60;12.90;;;;;;;0.27;100.00;98711.00;104216;1334;22040;-31
2022/11/24 01:46:58;;;;;;;36.50;14.10;;;;;;;0.23;100.00;98716.42;104136;1342;22110;-34
2022/11/24 01:49:31;;;;;;;38.70;14.20;;;;;;;0.23;100.00;98720.31;104187;1322;22072;-35
2022/11/24 01:52:00;;;;;;;68.50;20.40;;;;;;;0.24;100.00;98724.30;104167;1339;22531;-35
2022/11/24 01:54:29;;;;;;;64.50;18.60;;;;;;;0.20;100.00;98731.13;104097;1339;22145;-32
2022/11/24 01:57:00;;;;;;;71.10;21.00;;;;;;;0.17;100.00;98733.54;103979;1339;22486;-35
2022/11/24 01:59:25;;;;;;;61.50;19.00;;;;;;;0.18;100.00;98737.34;104016;1339;23183;-35
2022/11/24 02:01:50;;;;;;;53.30;17.30;;;;;;;0.17;100.00;98746.27;104094;1331;22143;-34
2022/11/24 02:04:18;;;;;;;50.90;17.10;;;;;;;0.13;100.00;98751.36;104204;1331;22046;-35
2022/11/24 02:06:43;;;;;;;77.60;24.60;;;;;;;0.11;100.00;98757.18;104056;1331;22492;-31
2022/11/24 02:09:12;;;;;;;61.10;19.90;;;;;;;0.13;100.00;98759.09;104149;1338;22252;-32
2022/11/24 02:11:38;;;;;;;24.90;8.10;;;;;;;0.14;100.00;98758.15;104167;1337;22107;-31
2022/11/24 02:14:05;;;;;;;63.00;20.10;;;;;;;0.11;100.00;98759.00;104098;1339;22516;-35
2022/11/24 02:16:31;;;;;;;60.00;19.60;;;;;;;0.12;100.00;98759.95;104154;1338;22913;-32
2022/11/24 02:18:56;;;;;;;118.20;26.80;;;;;;;0.12;100.00;98759.73;103747;1339;586908;-35
2022/11/24 02:21:22;;;;;;;71.70;22.00;;;;;;;0.16;100.00;98753.48;104110;1336;22091;-31
2022/11/24 02:23:51;;;;;;;63.50;22.10;;;;;;;0.15;100.00;98752.74;104194;1339;22523;-32
2022/11/24 02:26:21;;;;;;;69.50;20.60;;;;;;;0.18;100.00;98756.35;104233;1339;22162;-32
2022/11/24 02:28:47;;;;;;;70.40;20.40;;;;;;;0.24;100.00;98752.27;104123;1339;22384;-31
2022/11/24 02:31:13;;;;;;;43.20;13.50;;;;;;;0.24;100.00;98756.69;104067;1339;22467;-33
2022/11/24 02:33:38;;;;;;;85.90;20.80;;;;;;;0.23;100.00;98753.94;104116;1339;23279;-33
2022/11/24 02:36:04;;;;;;;35.70;9.30;;;;;;;0.23;100.00;98755.19;104198;1331;22216;-37
2022/11/24 02:38:31;;;;;;;63.50;18.20;;;;;;;0.19;100.00;98754.13;104261;1331;22254;-37
2022/11/24 02:40:57;;;;;;;85.50;18.90;;;;;;;0.17;100.00;98755.07;104229;1331;22536;-37
2022/11/24 02:43:22;;;;;;;53.80;16.90;;;;;;;0.15;100.00;98752.81;104220;1337;22218;-34
2022/11/24 02:45:48;;;;;;;55.20;17.40;;;;;;;0.13;100.00;98757.56;104218;1337;22582;-37
2022/11/24 02:48:14;;;;;;;82.40;24.60;;;;;;;0.10;100.00;98756.09;104204;1338;22201;-37
2022/11/24 02:50:41;;;;;;;60.70;18.40;;;;;;;0.10;100.00;98759.19;104229;1339;22155;-34
2022/11/24 02:53:06;;;;;;;74.40;22.90;;;;;;;0.14;100.00;98763.23;104190;1339;22164;-33
2022/11/24 02:55:32;;;;;;;62.10;16.60;;;;;;;0.22;100.00;98763.36;104185;1331;22512;-34
2022/11/24 02:57:57;;;;;;;64.90;17.70;;;;;;;0.22;100.00;98763.75;103747;1339;24405;-32
2022/11/24 03:00:23;;;;;;;44.80;12.80;;;;;;;0.19;100.00;98764.31;103594;1337;22052;-37
2022/11/24 03:02:48;;;;;;;79.50;23.60;;;;;;;0.18;100.00;98763.77;104189;1339;22141;-37
2022/11/24 03:05:14;;;;;;;56.70;16.80;;;;;;;0.20;100.00;98765.48;104113;1331;22092;-34
2022/11/24 03:07:40;;;;;;;59.60;18.90;;;;;;;0.21;100.00;98769.79;104196;1337;22142;-34
2022/11/24 03:10:05;;;;;;;70.00;20.50;;;;;;;0.22;100.00;98771.78;104238;1339;22145;-34
2022/11/24 03:12:31;;;;;;;43.70;14.40;;;;;;;0.16;100.00;98769.56;104228;1331;22223;-37
2022/11/24 03:14:57;;;;;;;45.30;15.20;;;;;;;0.14;100.00;98765.57;104212;1337;22247;-37
2022/11/24 03:17:22;;;;;;;83.40;25.80;;;;;;;0.12;100.00;98768.91;104245;1331;23276;-37
2022/11/24 03:19:48;;;;;;;51.10;14.20;;;;;;;0.11;100.00;98771.31;104194;1338;22535;-37
2022/11/24 03:22:13;;;;;;;74.50;19.20;;;;;;;0.13;100.00;98771.92;104227;1339;22524;-37
2022/11/24 03:24:39;;;;;;;62.60;16.90;;;;;;;0.14;100.00;98771.30;104205;1331;22530;-33
2022/11/24 03:27:04;;;;;;;52.80;16.20;;;;;;;0.15;100.00;98772.34;104134;1331;22067;-37
2022/11/24 03:29:30;;;;;;;76.00;18.00;;;;;;;0.18;100.00;98774.34;104054;1337;22263;-37
2022/11/24 03:31:55;;;;;;;43.30;16.30;;;;;;;0.19;100.00;98772.25;104191;1337;22512;-34
2022/11/24 03:34:21;;;;;;;64.90;20.40;;;;;;;0.21;100.00;98774.73;104235;1339;22290;-34
2022/11/24 03:36:46;;;;;;;48.10;15.40;;;;;;;0.24;100.00;98770.02;104138;1332;22175;-37
2022/11/24 03:39:12;;;;;;;56.90;16.40;;;;;;;0.29;100.00;98761.52;104252;1323;22211;-34
2022/11/24 03:41:38;;;;;;;63.20;16.10;;;;;;;0.28;100.00;98761.02;104216;1337;22521;-34
2022/11/24 03:44:03;;;;;;;47.70;14.60;;;;;;;0.25;100.00;98761.84;104230;1339;22177;-37
2022/11/24 03:46:29;;;;;;;43.20;15.00;;;;;;;0.27;100.00;98761.51;104209;1331;22764;-37
2022/11/24 03:48:55;;;;;;;68.90;20.30;;;;;;;0.25;100.00;98758.02;104200;1337;22078;-33
2022/11/24 03:51:20;;;;;;;45.40;13.50;;;;;;;0.28;100.00;98758.21;104138;1324;22010;-37
2022/11/24 03:53:46;;;;;;;66.70;17.30;;;;;;;0.31;100.00;98761.45;104205;1331;22254;-37
2022/11/24 03:56:12;;;;;;;38.30;12.70;;;;;;;0.32;100.00;98762.11;104087;1324;22198;-34
2022/11/24 03:58:38;;;;;;;36.10;11.60;;;;;;;0.34;100.00;98762.08;104025;1331;22467;-34
2022/11/24 04:01:03;;;;;;;45.90;15.40;;;;;;;0.36;100.00;98757.29;104119;1338;22534;-37
2022/11/24 04:03:29;;;;;;;64.40;16.80;;;;;;;0.37;100.00;98761.75;104211;1330;22050;-37
2022/11/24 04:05:54;;;;;;;45.80;12.00;;;;;;;0.40;100.00;98758.68;104190;1337;22477;-37
2022/11/24 04:08:20;;;;;;;60.20;17.70;;;;;;;0.36;100.00;98757.98;104075;1331;22419;-33
2022/11/24 04:10:50;;;;;;;55.00;15.70;;;;;;;0.34;100.00;98765.16;104233;1339;22089;-33
2022/11/24 04:13:17;;;;;;;66.10;19.70;;;;;;;0.32;100.00;98764.05;104237;1324;22150;-37
2022/11/24 04:15:42;;;;;;;58.70;14.60;;;;;;;0.32;100.00;98771.59;103933;1339;22524;-37
2022/11/24 04:18:09;;;;;;;59.80;16.60;;;;;;;0.30;100.00;98777.56;104234;1337;22210;-34
2022/11/24 04:20:34;;;;;;;57.90;15.30;;;;;;;0.29;100.00;98780.87;104198;1327;22279;-37
2022/11/24 04:22:59;;;;;;;83.10;20.00;;;;;;;0.32;100.00;98783.59;104203;1338;22158;-37
2022/11/24 04:25:25;;;;;;;51.50;13.30;;;;;;;0.30;100.00;98783.05;103614;1331;22504;-33
2022/11/24 04:27:52;;;;;;;63.80;15.70;;;;;;;0.28;100.00;98785.13;103931;1315;22545;-34
2022/11/24 04:30:18;;;;;;;52.20;15.90;;;;;;;0.28;100.00;98785.48;104223;1331;22279;-33
2022/11/24 04:32:43;;;;;;;64.00;18.20;;;;;;;0.27;100.00;98787.16;104194;1331;22176;-34
2022/11/24 04:35:09;;;;;;;72.60;19.60;;;;;;;0.29;100.00;98794.02;104129;1331;22533;-37
2022/11/24 04:37:35;;;;;;;62.70;18.50;;;;;;;0.30;100.00;98794.13;104124;1339;22256;-37
2022/11/24 04:40:01;;;;;;;75.10;21.40;;;;;;;0.35;100.00;98795.98;104224;1331;22503;-34
2022/11/24 04:42:26;;;;;;;55.10;14.70;;;;;;;0.33;100.00;98796.67;104214;1339;22086;-37
2022/11/24 04:44:51;;;;;;;53.00;15.90;;;;;;;0.30;100.00;98795.88;104249;1327;22143;-37
2022/11/24 04:47:19;;;;;;;56.40;17.40;;;;;;;0.26;100.00;98800.48;104133;1334;22638;-37
2022/11/24 04:49:46;;;;;;;51.10;18.20;;;;;;;0.26;100.00;98805.05;104177;1331;22500;-37
2022/11/24 04:55:14;;;;;;;56.60;18.50;;;;;;;0.29;100.00;98810.45;103289;1343;544960;-35
2022/11/24 04:57:41;;;;;;;54.40;17.10;;;;;;;0.24;100.00;98811.55;103740;1345;22323;-33
2022/11/24 05:00:08;;;;;;;67.40;19.60;;;;;;;0.21;100.00;98811.67;103797;1345;22165;-35
2022/11/24 05:02:33;;;;;;;49.30;15.20;;;;;;;0.23;100.00;98814.35;103506;1338;22425;-35
2022/11/24 05:04:59;;;;;;;68.80;18.90;;;;;;;0.25;100.00;98818.39;103813;1341;22950;-31
2022/11/24 05:07:25;;;;;;;55.40;17.00;;;;;;;0.22;100.00;98823.06;103920;1345;22108;-35
2022/11/24 05:12:19;;;;;;;36.70;12.30;;;;;;;0.20;100.00;98826.62;104075;1341;22158;-32
2022/11/24 05:14:45;;;;;;;48.30;13.40;;;;;;;0.19;100.00;98829.53;103933;1342;22538;-32
2022/11/24 05:17:10;;;;;;;67.70;17.20;;;;;;;0.16;100.00;98832.55;103896;1341;24296;-31
2022/11/24 05:19:36;;;;;;;32.10;11.50;;;;;;;0.17;100.00;98836.67;104020;1341;22486;-32
2022/11/24 05:22:01;;;;;;;33.50;9.40;;;;;;;0.20;100.00;98837.32;104050;1333;22039;-33
2022/11/24 05:24:26;;;;;;;38.30;12.80;;;;;;;0.20;100.00;98841.38;103047;1342;22119;-37
2022/11/24 05:26:52;;;;;;;25.90;8.80;;;;;;;0.21;100.00;98840.89;104050;1340;22186;-37
2022/11/24 05:29:17;;;;;;;48.10;14.50;;;;;;;0.26;100.00;98841.89;103982;1342;22633;-37
2022/11/24 05:31:43;;;;;;;47.10;13.50;;;;;;;0.27;100.00;98843.70;104041;1334;22994;-31
2022/11/24 05:34:08;;;;;;;48.40;12.20;;;;;;;0.29;100.00;98843.20;103300;1335;22512;-31
2022/11/24 05:39:03;;;;;;;51.50;14.90;;;;;;;0.28;100.00;98844.17;104063;1326;22057;-35
2022/11/24 05:41:29;;;;;;;58.80;15.60;;;;;;;0.27;100.00;98841.98;104051;1340;22388;-35
2022/11/24 05:43:54;;;;;;;75.40;20.20;;;;;;;0.24;100.00;98844.99;104030;1341;22233;-32
2022/11/24 05:46:20;;;;;;;50.60;14.40;;;;;;;0.23;100.00;98840.72;104005;1342;22141;-31
2022/11/24 05:48:45;;;;;;;58.30;17.40;;;;;;;0.24;100.00;98838.75;104019;1336;22257;-32
2022/11/24 05:51:11;;;;;;;48.60;16.50;;;;;;;0.22;100.00;98839.27;104062;1340;22187;-35
2022/11/24 05:53:36;;;;;;;60.00;20.20;;;;;;;0.18;100.00;98841.15;103910;1334;24417;-35
2022/11/24 05:56:03;;;;;;;53.70;16.20;;;;;;;0.21;100.00;98842.89;103826;1341;22528;-37
2022/11/24 05:58:28;;;;;;;78.50;19.50;;;;;;;0.19;100.00;98846.89;103936;1337;22212;-36
2022/11/24 06:00:54;;;;;;;58.90;19.00;;;;;;;0.21;100.00;98846.23;103997;1341;22527;-35
2022/11/24 06:03:19;;;;;;;57.40;17.80;;;;;;;0.22;100.00;98842.55;104047;1334;22485;-33
2022/11/24 06:05:45;;;;;;;59.70;18.70;;;;;;;0.27;100.00;98846.71;103975;1342;22169;-37
2022/11/24 06:08:11;;;;;;;80.20;27.10;;;;;;;0.33;100.00;98853.16;103964;1340;22337;-33
2022/11/24 06:10:37;;;;;;;60.40;20.20;;;;;;;0.35;100.00;98856.48;103944;1342;22023;-36
2022/11/24 06:13:05;;;;;;;58.40;18.00;;;;;;;0.35;100.00;98862.64;103994;1342;22222;-36
2022/11/24 06:15:31;;;;;;;76.50;23.40;;;;;;;0.34;100.00;98859.95;103699;1341;22590;-36
2022/11/24 06:17:57;;;;;;;64.70;19.20;;;;;;;0.37;100.00;98861.96;102490;1334;22144;-33
2022/11/24 06:20:23;;;;;;;66.20;18.50;;;;;;;0.36;100.00;98864.84;103660;1326;22511;-32
2022/11/24 06:22:48;;;;;;;39.50;14.30;;;;;;;0.37;100.00;98867.36;103947;1334;22533;-36
2022/11/24 06:25:15;;;;;;;53.60;18.30;;;;;;;0.40;100.00;98870.13;103854;1342;22136;-33
2022/11/24 06:27:40;;;;;;;35.80;12.20;;;;;;;0.44;100.00;98875.23;103819;1342;22849;-36
2022/11/24 06:30:06;;;;;;;61.70;18.90;;;;;;;0.45;100.00;98877.70;103701;1340;22144;-37
2022/11/24 06:32:32;;;;;;;71.90;21.00;;;;;;;0.45;100.00;98878.25;103926;1341;22563;-34
2022/11/24 06:34:57;;;;;;;95.00;26.00;;;;;;;0.43;100.00;98878.09;103929;1334;22500;-33
2022/11/24 06:37:23;;;;;;;54.60;20.70;;;;;;;0.40;100.00;98881.42;103916;1341;22255;-33
2022/11/24 06:39:48;;;;;;;60.40;17.60;;;;;;;0.43;100.00;98882.30;103941;1334;22525;-33
2022/11/24 06:42:17;;;;;;;82.10;24.60;;;;;;;0.48;100.00;98886.81;103979;1334;22190;-37
2022/11/24 06:44:46;;;;;;;85.60;19.80;;;;;;;0.39;100.00;98894.15;103984;1340;22656;-36
2022/11/24 06:47:13;;;;;;;65.70;19.40;;;;;;;0.34;100.00;98896.95;103889;1337;22509;-36
2022/11/24 06:49:38;;;;;;;54.80;18.10;;;;;;;0.32;100.00;98901.33;103917;1341;22172;-32
2022/11/24 06:52:04;;;;;;;60.00;17.00;;;;;;;0.33;100.00;98910.52;103946;1334;22508;-37
2022/11/24 06:54:29;;;;;;;82.50;22.60;;;;;;;0.35;100.00;98914.61;103867;1341;22043;-36
2022/11/24 06:56:56;;;;;;;87.60;24.90;;;;;;;0.36;100.00;98916.30;103878;1342;22939;-36
2022/11/24 06:59:23;;;;;;;77.50;21.00;;;;;;;0.32;100.00;98920.21;103897;1335;22674;-36
2022/11/24 07:01:48;;;;;;;72.10;18.50;;;;;;;0.32;100.00;98920.52;103850;1334;22550;-33
2022/11/24 07:04:14;;;;;;;106.30;24.90;;;;;;;0.32;100.00;98925.98;103945;1341;22593;-37
2022/11/24 07:06:40;;;;;;;61.20;15.10;;;;;;;0.31;100.00;98925.02;103885;1340;22464;-34
2022/11/24 07:09:08;;;;;;;110.50;21.70;;;;;;;0.35;100.00;98925.31;103956;1341;22537;-34
2022/11/24 07:11:34;;;;;;;72.30;18.60;;;;;;;0.43;100.00;98928.85;103849;1340;22805;-34
2022/11/24 07:13:59;;;;;;;66.10;16.00;;;;;;;0.42;100.00;98927.52;103519;1337;25564;-33
2022/11/24 07:16:25;;;;;;;58.80;17.20;;;;;;;0.45;100.00;98934.30;103651;1341;22571;-33
2022/11/24 07:18:51;;;;;;;60.00;18.40;;;;;;;0.45;100.00;98939.58;103928;1332;22515;-33
2022/11/24 07:21:18;;;;;;;64.40;17.40;;;;;;;0.45;100.00;98943.75;103912;1340;22264;-37
2022/11/24 07:23:47;;;;;;;87.00;18.40;;;;;;;0.48;100.00;98945.27;103704;1328;22470;-33
2022/11/24 07:26:12;;;;;;;30.00;8.50;;;;;;;0.49;100.00;98948.36;103718;1335;22553;-37
2022/11/24 07:28:38;;;;;;;64.90;17.00;;;;;;;0.49;100.00;98949.90;104005;1336;22043;-37
2022/11/24 07:31:06;;;;;;;60.90;17.50;;;;;;;0.56;100.00;98952.98;103956;1340;22038;-33
2022/11/24 07:33:31;;;;;;;83.50;19.00;;;;;;;0.60;100.00;98946.30;103928;1342;22557;-33
2022/11/24 07:35:58;;;;;;;76.50;20.20;;;;;;;0.58;100.00;98951.02;103921;1341;22532;-37
2022/11/24 07:38:24;;;;;;;105.70;28.80;;;;;;;0.58;100.00;98947.36;103973;1335;22650;-34
2022/11/24 07:40:49;;;;;;;61.80;18.60;;;;;;;0.58;100.00;98950.66;103934;1334;22026;-38
2022/11/24 07:43:15;;;;;;;56.10;16.60;;;;;;;0.54;100.00;98955.84;103941;1340;22041;-37
2022/11/24 07:45:40;;;;;;;91.90;23.60;;;;;;;0.52;100.00;98957.95;103113;1341;22516;-35
2022/11/24 07:48:06;;;;;;;71.40;20.30;;;;;;;0.54;100.00;98964.11;103944;1342;22534;-35
2022/11/24 07:50:34;;;;;;;70.80;14.20;;;;;;;0.58;100.00;98966.23;103848;1335;22590;-38
2022/11/24 07:53:02;;;;;;;45.00;12.90;;;;;;;0.67;100.00;98973.25;103943;1333;22524;-36
2022/11/24 07:55:29;;;;;;;63.30;18.00;;;;;;;0.67;100.00;98974.80;104027;1317;22269;-36
2022/11/24 07:57:58;;;;;;;47.50;15.10;;;;;;;0.61;100.00;98977.35;104012;1340;22197;-36
2022/11/24 08:00:24;;;;;;;88.50;19.30;;;;;;;0.61;100.00;98974.16;103940;1341;22574;-32
2022/11/24 08:02:49;;;;;;;54.80;16.90;;;;;;;0.67;100.00;98972.20;103751;1341;23535;-36
2022/11/24 08:05:15;;;;;;;74.30;18.30;;;;;;;0.62;100.00;98972.15;103966;1342;23869;-36
2022/11/24 08:07:40;;;;;;;79.40;23.00;;;;;;;0.57;100.00;98973.65;104013;1341;22215;-32
2022/11/24 08:10:06;;;;;;;70.50;16.70;;;;;;;0.66;100.00;98980.05;103970;1341;22128;-36
2022/11/24 08:12:32;;;;;;;58.30;15.80;;;;;;;0.74;100.00;98980.38;103883;1342;22125;-33
2022/11/24 08:14:58;;;;;;;61.80;18.50;;;;;;;0.72;100.00;98980.21;103901;1334;22442;-38
2022/11/24 08:17:24;;;;;;;64.70;19.20;;;;;;;0.72;100.00;98981.41;103184;1341;22527;-36
2022/11/24 08:19:49;;;;;;;109.00;25.30;;;;;;;0.77;100.00;98981.02;104001;1334;22148;-32
2022/11/24 08:22:15;;;;;;;58.10;17.40;;;;;;;0.84;100.00;98979.20;103963;1334;22518;-36
2022/11/24 08:24:45;;;;;;;65.40;19.50;;;;;;;0.80;100.00;98981.70;103927;1341;22511;-32
2022/11/24 08:27:12;;;;;;;59.40;17.90;;;;;;;0.77;100.00;98979.00;104010;1342;22225;-36
2022/11/24 08:29:38;;;;;;;43.90;10.40;;;;;;;0.75;100.00;98980.61;104010;1340;22185;-36
2022/11/24 08:32:04;;;;;;;94.30;22.60;;;;;;;0.78;100.00;98981.90;103937;1334;22190;-32
2022/11/24 08:34:29;;;;;;;71.40;18.90;;;;;;;0.87;100.00;98978.45;103834;1340;22487;-33
2022/11/24 08:36:55;;;;;;;51.60;16.00;;;;;;;0.94;100.00;98974.98;103976;1337;22060;-32
2022/11/24 08:39:20;;;;;;;70.60;17.00;;;;;;;0.83;100.00;98973.36;104023;1334;22590;-32
2022/11/24 08:41:46;;;;;;;70.00;17.70;;;;;;;0.86;100.00;98968.29;103949;1341;22159;-33
2022/11/24 08:44:14;;;;;;;80.70;21.70;;;;;;;0.98;100.00;98968.42;103593;1334;22485;-36
2022/11/24 08:46:40;;;;;;;77.40;20.30;;;;;;;1.03;100.00;98963.48;103447;1342;22164;-32
2022/11/24 08:49:06;;;;;;;56.30;15.90;;;;;;;1.00;100.00;98960.09;104019;1340;22519;-36
2022/11/24 08:51:31;;;;;;;66.00;19.40;;;;;;;0.97;100.00;98964.98;104016;1330;22514;-33
2022/11/24 08:53:58;;;;;;;56.00;15.00;;;;;;;1.10;100.00;98971.33;103932;1341;22015;-32
2022/11/24 08:56:26;;;;;;;84.90;23.70;;;;;;;1.16;100.00;98974.41;104030;1334;22157;-33
2022/11/24 08:58:52;;;;;;;63.50;16.20;;;;;;;1.19;100.00;98971.67;104019;1334;22140;-37
2022/11/24 09:01:17;;;;;;;59.40;17.80;;;;;;;1.17;100.00;98968.71;103944;1341;22215;-33
2022/11/24 09:03:43;;;;;;;;;;;;;;;1.14;100.00;98966.31;103973;1333;22078;-36
2022/11/24 09:06:09;;;;;;;112.40;24.00;;;;;;;1.20;100.00;98965.09;104014;1341;22329;-36
2022/11/24 09:08:35;;;;;;;104.70;26.30;;;;;;;1.16;100.00;98966.88;103947;1340;22234;-36
2022/11/24 09:11:03;;;;;;;94.50;21.80;;;;;;;1.10;100.00;98972.05;104032;1341;22522;-33
2022/11/24 09:13:28;;;;;;;82.60;20.10;;;;;;;1.06;100.00;98973.27;103992;1341;22185;-38
2022/11/24 09:15:54;;;;;;;76.20;17.20;;;;;;;1.08;100.00;98975.73;103959;1321;22192;-37
2022/11/24 09:18:19;;;;;;;65.90;19.50;;;;;;;1.13;100.00;98980.85;103967;1342;22266;-33
2022/11/24 09:20:45;;;;;;;61.70;16.20;;;;;;;1.01;100.00;98979.59;103882;1342;22598;-36
2022/11/24 09:23:10;;;;;;;94.00;23.10;;;;;;;1.01;100.00;98974.84;103950;1334;22232;-33
2022/11/24 09:25:36;;;;;;;68.60;17.10;;;;;;;1.12;100.00;98980.11;104032;1340;22202;-33
2022/11/24 09:28:02;;;;;;;75.30;20.50;;;;;;;1.23;100.00;98976.42;103927;1334;22523;-37
2022/11/24 09:30:27;;;;;;;63.00;15.80;;;;;;;1.20;100.00;98979.19;103953;1342;22260;-36
2022/11/24 09:32:55;;;;;;;84.10;20.70;;;;;;;1.12;100.00;98974.86;103998;1341;22227;-36
2022/11/24 09:35:21;;;;;;;73.80;19.30;;;;;;;1.10;100.00;98974.09;103986;1341;22707;-36
2022/11/24 09:37:47;;;;;;;69.40;14.30;;;;;;;1.17;100.00;98974.36;104027;1340;22577;-33
2022/11/24 09:40:13;;;;;;;81.80;23.30;;;;;;;1.35;100.00;98974.21;103987;1334;22199;-36
2022/11/24 09:42:43;;;;;;;60.30;14.20;;;;;;;1.35;100.00;98966.77;104058;1337;22065;-33
2022/11/24 09:45:16;;;;;;;92.80;21.70;;;;;;;1.36;100.00;98966.84;104016;1341;22608;-37
2022/11/24 09:47:50;;;;;;;68.80;20.00;;;;;;;1.47;100.00;98968.80;104014;1342;22580;-33
2022/11/24 09:50:19;;;;;;;67.20;19.40;;;;;;;1.47;100.00;98967.98;103977;1342;22451;-37
2022/11/24 09:52:52;;;;;;;71.10;19.30;;;;;;;1.32;100.00;98966.56;103973;1339;22192;-37
2022/11/24 09:55:24;;;;;;;63.40;18.00;;;;;;;1.48;100.00;98961.27;103962;1342;22984;-37
2022/11/24 09:57:55;;;;;;;43.90;11.30;;;;;;;1.54;100.00;98954.76;102653;1334;23219;-32
2022/11/24 10:00:20;;;;;;;51.00;16.60;;;;;;;1.53;100.00;98946.02;102880;1342;22503;-33
2022/11/24 10:02:49;;;;;;;70.40;19.50;;;;;;;1.42;100.00;98940.34;104006;1340;22613;-33
2022/11/24 10:05:14;;;;;;;81.20;22.10;;;;;;;1.44;100.00;98950.61;103969;1341;22509;-33
2022/11/24 10:07:44;;;;;;;88.60;27.00;;;;;;;1.43;100.00;98952.69;103889;1341;22245;-33
2022/11/24 10:10:14;;;;;;;77.90;19.90;;;;;;;1.45;100.00;98952.08;104007;1340;22502;-36
2022/11/24 10:13:01;;;;;;;81.80;20.60;;;;;;;1.49;100.00;98954.00;103959;1342;22604;-33
2022/11/24 10:15:34;;;;;;;73.60;20.10;;;;;;;1.62;100.00;98955.86;103922;1335;22651;-33
2022/11/24 10:18:04;;;;;;;58.00;17.10;;;;;;;1.76;100.00;98961.36;103926;1330;22974;-36
2022/11/24 10:20:29;;;;;;;53.60;16.70;;;;;;;1.77;100.00;98956.02;103963;1334;22539;-33
2022/11/24 10:23:03;;;;;;;70.20;22.60;;;;;;;1.58;100.00;98940.55;103791;1334;22530;-36
2022/11/24 10:25:29;;;;;;;;;;;;;;;1.65;100.00;98939.48;103988;1342;23350;-33
2022/11/24 10:27:58;;;;;;;54.60;17.60;;;;;;;1.65;100.00;98934.75;104026;1341;22523;-36
2022/11/24 10:30:24;;;;;;;68.80;18.50;;;;;;;1.75;100.00;98936.04;104026;1341;22440;-36
2022/11/24 10:32:55;;;;;;;53.00;14.70;;;;;;;1.84;100.00;98934.63;103992;1341;22536;-36
2022/11/24 10:35:25;;;;;;;71.50;20.50;;;;;;;1.81;100.00;98930.48;103951;1342;22573;-36
2022/11/24 10:37:56;;;;;;;47.00;16.40;;;;;;;1.84;100.00;98936.05;104016;1342;22210;-36
2022/11/24 10:40:26;;;;;;;55.30;18.80;;;;;;;1.91;100.00;98926.93;103902;1341;22053;-33
2022/11/24 10:42:51;;;;;;;117.40;30.90;;;;;;;1.92;100.00;98929.83;104017;1340;22522;-36
2022/11/24 10:45:21;;;;;;;256.60;67.20;;;;;;;1.92;100.00;98926.45;103718;1341;22564;-36
2022/11/24 10:47:46;;;;;;;80.20;23.40;;;;;;;1.97;100.00;98925.96;104047;1334;23592;-36
2022/11/24 10:50:17;;;;;;;151.50;35.30;;;;;;;1.98;100.00;98924.79;104027;1334;22430;-36
2022/11/24 10:52:48;;;;;;;87.70;26.10;;;;;;;2.07;100.00;98927.61;103984;1342;22504;-32
2022/11/24 10:55:13;;;;;;;72.30;20.90;;;;;;;2.20;100.00;98928.92;104023;1341;22218;-33
2022/11/24 10:57:39;;;;;;;69.60;21.40;;;;;;;2.14;100.00;98925.10;104012;1326;22284;-36
2022/11/24 11:00:12;;;;;;;60.00;20.40;;;;;;;2.07;100.00;98927.08;104040;1334;22497;-33
2022/11/24 11:02:38;;;;;;;58.00;17.60;;;;;;;1.97;100.00;98932.17;103797;1340;22526;-33
2022/11/24 11:05:13;;;;;;;54.20;16.70;;;;;;;2.21;100.00;98928.86;103765;1331;22179;-33
2022/11/24 11:07:38;;;;;;;51.30;16.60;;;;;;;2.24;100.00;98923.95;103653;1326;22519;-32
2022/11/24 11:10:11;;;;;;;50.80;19.60;;;;;;;2.21;100.00;98922.08;103801;1341;22067;-33
2022/11/24 11:12:36;;;;;;;65.70;21.30;;;;;;;2.17;100.00;98923.20;104044;1342;22781;-33
2022/11/24 11:15:09;;;;;;;66.70;20.20;;;;;;;2.23;100.00;98927.52;104002;1342;22518;-36